Terminal Aerodrome Forecast
Issued by NWS Sterling, VA

Home | Current Version | Previous Version | Text Only | Print | Product List | Glossary On
Versions: 1 2 3 4 5 6 7 8 9 10 11 12 13 14 15 16 17 18 19 20 21 22 23 24 25 26
262
FTUS41 KLWX 172320
TAFBWI
TAF
KBWI 172320Z 1800/1906 VRB04KT P6SM SKC
     FM181800 19005KT P6SM FEW250
     FM182300 VRB03KT P6SM FEW250=

USA.gov is the U.S. government's official web portal to all federal, state and local government web resources and services.